sensor_id;sensor_type;location;lat;lon;timestamp;pressure;altitude;pressure_sealevel;temperature;humidity
70009;BME280;59542;37.950;-122.338;2023-07-08T00:01:15;100975.13;;;18.52;61.26
70009;BME280;59542;37.950;-122.338;2023-07-08T00:03:41;100976.75;;;18.53;62.24
70009;BME280;59542;37.950;-122.338;2023-07-08T00:06:16;100975.41;;;18.78;61.29
70009;BME280;59542;37.950;-122.338;2023-07-08T00:08:42;100972.94;;;18.76;61.72
70009;BME280;59542;37.950;-122.338;2023-07-08T00:11:13;100969.97;;;18.78;61.20
70009;BME280;59542;37.950;-122.338;2023-07-08T00:13:39;100970.69;;;18.68;61.11
70009;BME280;59542;37.950;-122.338;2023-07-08T00:16:14;100963.84;;;18.65;61.17
70009;BME280;59542;37.950;-122.338;2023-07-08T00:18:40;100970.34;;;18.64;60.63
70009;BME280;59542;37.950;-122.338;2023-07-08T00:21:12;100957.38;;;18.66;60.88
70009;BME280;59542;37.950;-122.338;2023-07-08T00:23:48;100969.78;;;18.62;61.93
70009;BME280;59542;37.950;-122.338;2023-07-08T00:26:25;100958.84;;;18.52;62.35
70009;BME280;59542;37.950;-122.338;2023-07-08T00:28:52;100949.69;;;18.09;63.39
70009;BME280;59542;37.950;-122.338;2023-07-08T00:31:19;100960.94;;;17.96;63.93
70009;BME280;59542;37.950;-122.338;2023-07-08T00:33:56;100960.53;;;17.87;64.69
70009;BME280;59542;37.950;-122.338;2023-07-08T00:36:23;100957.16;;;17.97;63.59
70009;BME280;59542;37.950;-122.338;2023-07-08T00:38:50;100953.06;;;17.94;64.15
70009;BME280;59542;37.950;-122.338;2023-07-08T00:41:38;100951.72;;;17.97;64.25
70009;BME280;59542;37.950;-122.338;2023-07-08T00:44:15;100941.72;;;17.59;63.98
70009;BME280;59542;37.950;-122.338;2023-07-08T00:47:11;100939.16;;;17.69;65.50
70009;BME280;59542;37.950;-122.338;2023-07-08T00:49:46;100943.06;;;17.56;64.98
70009;BME280;59542;37.950;-122.338;2023-07-08T00:52:28;100947.25;;;17.47;65.13
70009;BME280;59542;37.950;-122.338;2023-07-08T00:54:57;100937.38;;;17.58;65.65
70009;BME280;59542;37.950;-122.338;2023-07-08T00:57:27;100941.41;;;17.72;65.82
70009;BME280;59542;37.950;-122.338;2023-07-08T01:00:00;100952.06;;;17.62;65.67
70009;BME280;59542;37.950;-122.338;2023-07-08T01:02:29;100942.94;;;17.68;65.54
70009;BME280;59542;37.950;-122.338;2023-07-08T01:05:09;100940.22;;;17.46;66.40
70009;BME280;59542;37.950;-122.338;2023-07-08T01:07:38;100936.91;;;17.61;65.50
70009;BME280;59542;37.950;-122.338;2023-07-08T01:10:10;100937.28;;;17.31;66.11
70009;BME280;59542;37.950;-122.338;2023-07-08T01:12:45;100932.81;;;17.41;66.21
70009;BME280;59542;37.950;-122.338;2023-07-08T01:15:14;100939.47;;;17.51;66.14
70009;BME280;59542;37.950;-122.338;2023-07-08T01:17:43;100931.59;;;17.49;65.99
70009;BME280;59542;37.950;-122.338;2023-07-08T01:20:10;100927.97;;;17.22;66.38
70009;BME280;59542;37.950;-122.338;2023-07-08T01:22:41;100927.41;;;17.41;66.49
70009;BME280;59542;37.950;-122.338;2023-07-08T01:25:09;100918.41;;;17.36;66.55
70009;BME280;59542;37.950;-122.338;2023-07-08T01:27:39;100925.81;;;17.24;66.67
70009;BME280;59542;37.950;-122.338;2023-07-08T01:30:07;100931.88;;;17.31;66.21
70009;BME280;59542;37.950;-122.338;2023-07-08T01:32:39;100924.75;;;17.25;66.51
70009;BME280;59542;37.950;-122.338;2023-07-08T01:35:09;100921.88;;;17.14;66.90
70009;BME280;59542;37.950;-122.338;2023-07-08T01:40:37;100924.91;;;17.18;67.22
70009;BME280;59542;37.950;-122.338;2023-07-08T01:43:05;100922.69;;;17.15;67.17
70009;BME280;59542;37.950;-122.338;2023-07-08T01:45:36;100926.16;;;17.10;67.28
70009;BME280;59542;37.950;-122.338;2023-07-08T01:48:06;100922.03;;;17.25;67.30
70009;BME280;59542;37.950;-122.338;2023-07-08T01:50:36;100927.78;;;17.28;66.99
70009;BME280;59542;37.950;-122.338;2023-07-08T01:53:18;100932.41;;;17.11;67.34
70009;BME280;59542;37.950;-122.338;2023-07-08T01:55:45;100930.59;;;17.17;67.72
70009;BME280;59542;37.950;-122.338;2023-07-08T01:58:12;100930.75;;;17.27;67.15
70009;BME280;59542;37.950;-122.338;2023-07-08T02:00:38;100934.00;;;17.29;66.88
70009;BME280;59542;37.950;-122.338;2023-07-08T02:03:04;100934.34;;;17.15;67.11
70009;BME280;59542;37.950;-122.338;2023-07-08T02:05:31;100939.06;;;17.42;66.91
70009;BME280;59542;37.950;-122.338;2023-07-08T02:07:57;100945.22;;;17.76;65.90
70009;BME280;59542;37.950;-122.338;2023-07-08T02:10:23;100933.44;;;17.82;65.08
70009;BME280;59542;37.950;-122.338;2023-07-08T02:12:51;100926.44;;;17.69;65.46
70009;BME280;59542;37.950;-122.338;2023-07-08T02:15:17;100924.00;;;17.68;65.19
70009;BME280;59542;37.950;-122.338;2023-07-08T02:17:43;100920.16;;;18.08;63.86
70009;BME280;59542;37.950;-122.338;2023-07-08T02:20:10;100923.81;;;18.18;64.00
70009;BME280;59542;37.950;-122.338;2023-07-08T02:22:36;100917.41;;;18.03;63.89
70009;BME280;59542;37.950;-122.338;2023-07-08T02:25:02;100928.03;;;18.09;63.31
70009;BME280;59542;37.950;-122.338;2023-07-08T02:27:29;100923.09;;;18.01;63.96
70009;BME280;59542;37.950;-122.338;2023-07-08T02:29:55;100921.50;;;18.05;63.79
70009;BME280;59542;37.950;-122.338;2023-07-08T02:32:21;100924.00;;;18.12;63.99
70009;BME280;59542;37.950;-122.338;2023-07-08T02:34:47;100934.38;;;18.20;63.83
70009;BME280;59542;37.950;-122.338;2023-07-08T02:37:14;100927.59;;;18.17;64.24
70009;BME280;59542;37.950;-122.338;2023-07-08T02:39:40;100919.81;;;18.26;63.70
70009;BME280;59542;37.950;-122.338;2023-07-08T02:42:06;100920.59;;;18.22;63.70
70009;BME280;59542;37.950;-122.338;2023-07-08T02:44:32;100917.47;;;18.08;63.92
70009;BME280;59542;37.950;-122.338;2023-07-08T02:46:59;100922.75;;;17.76;65.06
70009;BME280;59542;37.950;-122.338;2023-07-08T02:49:26;100922.34;;;17.45;66.48
70009;BME280;59542;37.950;-122.338;2023-07-08T02:51:52;100927.94;;;17.38;66.74
70009;BME280;59542;37.950;-122.338;2023-07-08T02:54:18;100918.34;;;17.31;66.57
70009;BME280;59542;37.950;-122.338;2023-07-08T02:56:44;100923.00;;;17.35;67.07
70009;BME280;59542;37.950;-122.338;2023-07-08T02:59:11;100925.50;;;16.86;68.76
70009;BME280;59542;37.950;-122.338;2023-07-08T03:01:37;100930.56;;;16.66;69.86
70009;BME280;59542;37.950;-122.338;2023-07-08T03:04:10;100912.75;;;16.53;70.40
70009;BME280;59542;37.950;-122.338;2023-07-08T03:06:41;100923.88;;;16.40;71.01
70009;BME280;59542;37.950;-122.338;2023-07-08T03:09:07;100933.66;;;16.01;72.36
70009;BME280;59542;37.950;-122.338;2023-07-08T03:11:34;100920.31;;;15.94;72.21
70009;BME280;59542;37.950;-122.338;2023-07-08T03:14:01;100935.38;;;15.67;73.80
70009;BME280;59542;37.950;-122.338;2023-07-08T03:16:27;100931.94;;;15.48;74.60
70009;BME280;59542;37.950;-122.338;2023-07-08T03:18:54;100931.25;;;15.41;75.23
70009;BME280;59542;37.950;-122.338;2023-07-08T03:21:20;100931.38;;;15.46;75.29
70009;BME280;59542;37.950;-122.338;2023-07-08T03:23:48;100929.16;;;15.31;75.90
70009;BME280;59542;37.950;-122.338;2023-07-08T03:26:19;100944.75;;;15.05;77.02
70009;BME280;59542;37.950;-122.338;2023-07-08T03:28:47;100931.53;;;15.16;76.33
70009;BME280;59542;37.950;-122.338;2023-07-08T03:31:14;100936.28;;;15.02;76.90
70009;BME280;59542;37.950;-122.338;2023-07-08T03:33:40;100945.53;;;14.83;77.83
70009;BME280;59542;37.950;-122.338;2023-07-08T03:36:14;100941.63;;;14.67;78.68
70009;BME280;59542;37.950;-122.338;2023-07-08T03:38:55;100940.94;;;14.71;78.16
70009;BME280;59542;37.950;-122.338;2023-07-08T03:41:22;100939.88;;;14.72;78.25
70009;BME280;59542;37.950;-122.338;2023-07-08T03:43:49;100942.88;;;14.52;78.92
70009;BME280;59542;37.950;-122.338;2023-07-08T03:46:20;100940.69;;;14.43;79.30
70009;BME280;59542;37.950;-122.338;2023-07-08T03:48:47;100933.19;;;14.33;80.26
70009;BME280;59542;37.950;-122.338;2023-07-08T03:51:23;100931.63;;;14.25;80.98
70009;BME280;59542;37.950;-122.338;2023-07-08T03:53:51;100938.56;;;14.33;80.78
70009;BME280;59542;37.950;-122.338;2023-07-08T03:56:18;100950.97;;;14.34;80.71
70009;BME280;59542;37.950;-122.338;2023-07-08T03:58:44;100948.59;;;14.26;81.17
70009;BME280;59542;37.950;-122.338;2023-07-08T04:01:15;100953.81;;;14.21;80.89
70009;BME280;59542;37.950;-122.338;2023-07-08T04:03:42;100954.06;;;14.19;81.52
70009;BME280;59542;37.950;-122.338;2023-07-08T04:06:09;100949.16;;;14.16;81.49
70009;BME280;59542;37.950;-122.338;2023-07-08T04:08:35;100957.03;;;13.99;82.31
70009;BME280;59542;37.950;-122.338;2023-07-08T04:11:02;100957.22;;;13.98;82.88
70009;BME280;59542;37.950;-122.338;2023-07-08T04:13:28;100954.25;;;14.06;82.98
70009;BME280;59542;37.950;-122.338;2023-07-08T04:15:57;100954.75;;;13.96;83.62
70009;BME280;59542;37.950;-122.338;2023-07-08T04:18:25;100966.94;;;13.99;83.42
70009;BME280;59542;37.950;-122.338;2023-07-08T04:20:51;100960.97;;;13.97;83.78
70009;BME280;59542;37.950;-122.338;2023-07-08T04:23:19;100969.28;;;13.95;83.31
70009;BME280;59542;37.950;-122.338;2023-07-08T04:25:47;100974.66;;;13.95;83.07
70009;BME280;59542;37.950;-122.338;2023-07-08T04:28:15;100976.72;;;13.93;82.83
70009;BME280;59542;37.950;-122.338;2023-07-08T04:30:42;100991.47;;;13.91;nan
70009;BME280;59542;37.950;-122.338;2023-07-08T04:33:13;100990.19;;;13.93;83.25
70009;BME280;59542;37.950;-122.338;2023-07-08T04:35:41;100985.69;;;13.87;83.44
70009;BME280;59542;37.950;-122.338;2023-07-08T04:38:18;100989.44;;;13.86;83.40
70009;BME280;59542;37.950;-122.338;2023-07-08T04:40:45;100993.09;;;13.92;83.02
70009;BME280;59542;37.950;-122.338;2023-07-08T04:43:11;100988.69;;;13.79;83.58
70009;BME280;59542;37.950;-122.338;2023-07-08T04:45:42;100993.50;;;13.77;83.28
70009;BME280;59542;37.950;-122.338;2023-07-08T04:48:14;100994.59;;;13.69;83.74
70009;BME280;59542;37.950;-122.338;2023-07-08T04:50:45;100999.31;;;13.74;83.47
70009;BME280;59542;37.950;-122.338;2023-07-08T04:53:13;100990.25;;;13.68;83.85
70009;BME280;59542;37.950;-122.338;2023-07-08T04:55:53;101002.22;;;13.72;83.63
70009;BME280;59542;37.950;-122.338;2023-07-08T04:58:19;101018.22;;;13.67;83.99
70009;BME280;59542;37.950;-122.338;2023-07-08T05:00:46;101023.53;;;13.74;83.84
70009;BME280;59542;37.950;-122.338;2023-07-08T05:03:12;101026.06;;;13.69;84.05
70009;BME280;59542;37.950;-122.338;2023-07-08T05:05:39;101022.31;;;13.70;83.79
70009;BME280;59542;37.950;-122.338;2023-07-08T05:08:06;101023.34;;;13.69;83.54
70009;BME280;59542;37.950;-122.338;2023-07-08T05:10:32;101028.59;;;13.64;83.81
70009;BME280;59542;37.950;-122.338;2023-07-08T05:12:59;101028.81;;;13.62;83.96
70009;BME280;59542;37.950;-122.338;2023-07-08T05:15:26;101030.19;;;13.71;83.73
70009;BME280;59542;37.950;-122.338;2023-07-08T05:17:52;101030.38;;;13.70;83.63
70009;BME280;59542;37.950;-122.338;2023-07-08T05:20:19;101028.31;;;13.72;83.13
70009;BME280;59542;37.950;-122.338;2023-07-08T05:22:46;101031.56;;;13.56;83.60
70009;BME280;59542;37.950;-122.338;2023-07-08T05:25:13;101021.63;;;13.56;84.11
70009;BME280;59542;37.950;-122.338;2023-07-08T05:27:40;101038.84;;;13.48;84.48
70009;BME280;59542;37.950;-122.338;2023-07-08T05:30:08;101039.38;;;13.39;85.40
70009;BME280;59542;37.950;-122.338;2023-07-08T05:32:34;101039.19;;;13.59;84.18
70009;BME280;59542;37.950;-122.338;2023-07-08T05:35:00;101039.63;;;13.56;84.09
70009;BME280;59542;37.950;-122.338;2023-07-08T05:37:27;101033.03;;;13.52;84.59
70009;BME280;59542;37.950;-122.338;2023-07-08T05:39:55;101042.72;;;13.34;85.45
70009;BME280;59542;37.950;-122.338;2023-07-08T05:42:22;101033.81;;;13.34;85.79
70009;BME280;59542;37.950;-122.338;2023-07-08T05:44:48;101037.91;;;13.36;85.23
70009;BME280;59542;37.950;-122.338;2023-07-08T05:47:17;101034.28;;;13.49;84.79
70009;BME280;59542;37.950;-122.338;2023-07-08T05:49:44;101034.66;;;13.34;85.31
70009;BME280;59542;37.950;-122.338;2023-07-08T05:52:10;101023.44;;;13.37;85.51
70009;BME280;59542;37.950;-122.338;2023-07-08T05:54:38;101036.22;;;13.42;85.11
70009;BME280;59542;37.950;-122.338;2023-07-08T05:57:05;101029.91;;;13.30;85.58
70009;BME280;59542;37.950;-122.338;2023-07-08T05:59:32;101024.97;;;13.27;85.74
70009;BME280;59542;37.950;-122.338;2023-07-08T06:01:59;101025.09;;;13.38;85.12
70009;BME280;59542;37.950;-122.338;2023-07-08T06:04:25;101027.88;;;13.25;85.57
70009;BME280;59542;37.950;-122.338;2023-07-08T06:06:51;101022.41;;;13.38;84.80
70009;BME280;59542;37.950;-122.338;2023-07-08T06:09:18;101018.34;;;13.29;85.03
70009;BME280;59542;37.950;-122.338;2023-07-08T06:11:44;101021.63;;;13.31;85.10
70009;BME280;59542;37.950;-122.338;2023-07-08T06:14:12;101013.13;;;13.34;85.31
70009;BME280;59542;37.950;-122.338;2023-07-08T06:16:38;101016.25;;;13.31;85.58
70009;BME280;59542;37.950;-122.338;2023-07-08T06:19:05;101012.50;;;13.32;85.12
70009;BME280;59542;37.950;-122.338;2023-07-08T06:21:31;101023.72;;;13.29;85.12
70009;BME280;59542;37.950;-122.338;2023-07-08T06:23:57;101019.16;;;13.30;84.79
70009;BME280;59542;37.950;-122.338;2023-07-08T06:26:24;101015.75;;;13.16;85.16
70009;BME280;59542;37.950;-122.338;2023-07-08T06:28:50;101022.59;;;13.12;85.53
70009;BME280;59542;37.950;-122.338;2023-07-08T06:31:16;101031.03;;;13.22;85.00
70009;BME280;59542;37.950;-122.338;2023-07-08T06:33:42;101030.00;;;13.16;85.74
70009;BME280;59542;37.950;-122.338;2023-07-08T06:36:09;101029.59;;;13.13;85.88
70009;BME280;59542;37.950;-122.338;2023-07-08T06:38:35;101029.00;;;13.11;85.77
70009;BME280;59542;37.950;-122.338;2023-07-08T06:41:01;101022.94;;;13.15;85.47
70009;BME280;59542;37.950;-122.338;2023-07-08T06:43:27;101035.38;;;13.16;85.45
70009;BME280;59542;37.950;-122.338;2023-07-08T06:45:54;101026.50;;;13.16;85.47
70009;BME280;59542;37.950;-122.338;2023-07-08T06:48:20;101034.38;;;13.11;85.67
70009;BME280;59542;37.950;-122.338;2023-07-08T06:50:48;101043.63;;;13.15;85.44
70009;BME280;59542;37.950;-122.338;2023-07-08T06:53:15;101047.75;;;13.24;85.21
70009;BME280;59542;37.950;-122.338;2023-07-08T06:55:44;101050.00;;;13.20;84.80
70009;BME280;59542;37.950;-122.338;2023-07-08T06:58:11;101038.41;;;12.95;85.91
70009;BME280;59542;37.950;-122.338;2023-07-08T07:00:41;101055.72;;;13.06;85.64
70009;BME280;59542;37.950;-122.338;2023-07-08T07:03:08;101056.03;;;13.23;84.83
70009;BME280;59542;37.950;-122.338;2023-07-08T07:05:35;101053.94;;;13.25;84.43
70009;BME280;59542;37.950;-122.338;2023-07-08T07:08:01;101046.13;;;13.16;84.51
70009;BME280;59542;37.950;-122.338;2023-07-08T07:10:27;101063.06;;;13.17;84.79
70009;BME280;59542;37.950;-122.338;2023-07-08T07:12:54;101067.16;;;13.26;84.12
70009;BME280;59542;37.950;-122.338;2023-07-08T07:15:20;101064.09;;;13.23;84.13
70009;BME280;59542;37.950;-122.338;2023-07-08T07:17:46;101069.59;;;13.34;83.53
70009;BME280;59542;37.950;-122.338;2023-07-08T07:20:13;101068.66;;;13.47;83.28
70009;BME280;59542;37.950;-122.338;2023-07-08T07:22:39;101068.88;;;13.45;83.09
70009;BME280;59542;37.950;-122.338;2023-07-08T07:25:06;101068.31;;;13.37;83.53
70009;BME280;59542;37.950;-122.338;2023-07-08T07:27:32;101070.94;;;13.43;83.11
70009;BME280;59542;37.950;-122.338;2023-07-08T07:29:58;101077.22;;;13.37;83.01
70009;BME280;59542;37.950;-122.338;2023-07-08T07:32:25;101062.06;;;13.11;84.31
70009;BME280;59542;37.950;-122.338;2023-07-08T07:34:52;101069.91;;;13.13;84.46
70009;BME280;59542;37.950;-122.338;2023-07-08T07:37:20;101057.31;;;13.13;84.18
70009;BME280;59542;37.950;-122.338;2023-07-08T07:39:47;101065.84;;;13.04;84.50
70009;BME280;59542;37.950;-122.338;2023-07-08T07:42:14;101060.84;;;13.07;84.65
70009;BME280;59542;37.950;-122.338;2023-07-08T07:44:41;101063.78;;;12.99;85.07
70009;BME280;59542;37.950;-122.338;2023-07-08T07:47:09;101057.59;;;12.99;85.06
70009;BME280;59542;37.950;-122.338;2023-07-08T07:49:35;101054.63;;;13.13;84.53
70009;BME280;59542;37.950;-122.338;2023-07-08T07:52:02;101052.44;;;12.97;85.17
70009;BME280;59542;37.950;-122.338;2023-07-08T07:54:28;101067.75;;;12.97;85.12
70009;BME280;59542;37.950;-122.338;2023-07-08T07:56:55;101056.41;;;12.94;85.70
70009;BME280;59542;37.950;-122.338;2023-07-08T07:59:21;101058.63;;;12.98;85.59
70009;BME280;59542;37.950;-122.338;2023-07-08T08:01:47;101054.31;;;12.97;85.12
70009;BME280;59542;37.950;-122.338;2023-07-08T08:04:14;101049.13;;;13.02;84.87
70009;BME280;59542;37.950;-122.338;2023-07-08T08:06:40;101048.88;;;13.03;84.93
70009;BME280;59542;37.950;-122.338;2023-07-08T08:09:06;101047.94;;;12.91;85.46
70009;BME280;59542;37.950;-122.338;2023-07-08T08:11:33;101046.34;;;12.83;85.63
70009;BME280;59542;37.950;-122.338;2023-07-08T08:14:00;101056.69;;;12.80;86.24
70009;BME280;59542;37.950;-122.338;2023-07-08T08:16:27;101042.38;;;12.86;85.69
70009;BME280;59542;37.950;-122.338;2023-07-08T08:18:53;101050.63;;;12.91;85.75
70009;BME280;59542;37.950;-122.338;2023-07-08T08:21:19;101045.47;;;12.89;85.81
70009;BME280;59542;37.950;-122.338;2023-07-08T08:23:47;101053.34;;;12.84;86.03
70009;BME280;59542;37.950;-122.338;2023-07-08T08:26:14;101051.91;;;12.88;85.82
70009;BME280;59542;37.950;-122.338;2023-07-08T08:28:41;101056.81;;;12.91;85.48
70009;BME280;59542;37.950;-122.338;2023-07-08T08:31:07;101053.59;;;12.83;86.01
70009;BME280;59542;37.950;-122.338;2023-07-08T08:33:33;101057.91;;;12.84;85.83
70009;BME280;59542;37.950;-122.338;2023-07-08T08:36:00;101056.63;;;12.86;85.63
70009;BME280;59542;37.950;-122.338;2023-07-08T08:38:26;101064.00;;;12.66;86.37
70009;BME280;59542;37.950;-122.338;2023-07-08T08:40:52;101058.72;;;12.84;85.71
70009;BME280;59542;37.950;-122.338;2023-07-08T08:43:22;101068.34;;;12.67;86.71
70009;BME280;59542;37.950;-122.338;2023-07-08T08:48:41;101075.03;;;12.89;85.29
70009;BME280;59542;37.950;-122.338;2023-07-08T08:51:13;101072.53;;;12.94;84.69
70009;BME280;59542;37.950;-122.338;2023-07-08T08:53:41;101067.38;;;12.86;85.13
70009;BME280;59542;37.950;-122.338;2023-07-08T08:56:21;101068.47;;;12.79;85.61
70009;BME280;59542;37.950;-122.338;2023-07-08T09:01:38;101061.41;;;12.84;85.45
70009;BME280;59542;37.950;-122.338;2023-07-08T09:04:23;101061.28;;;12.73;86.13
70009;BME280;59542;37.950;-122.338;2023-07-08T09:07:00;101065.25;;;12.63;86.49
70009;BME280;59542;37.950;-122.338;2023-07-08T09:09:40;101064.16;;;12.71;86.22
70009;BME280;59542;37.950;-122.338;2023-07-08T09:12:14;101055.50;;;12.69;85.48
70009;BME280;59542;37.950;-122.338;2023-07-08T09:14:42;101052.03;;;12.62;86.65
70009;BME280;59542;37.950;-122.338;2023-07-08T09:17:31;101049.38;;;12.49;87.42
70009;BME280;59542;37.950;-122.338;2023-07-08T09:27:42;101050.88;;;12.45;87.96
70009;BME280;59542;37.950;-122.338;2023-07-08T09:30:18;101049.66;;;12.40;88.09
70009;BME280;59542;37.950;-122.338;2023-07-08T09:32:47;101052.34;;;12.40;87.92
70009;BME280;59542;37.950;-122.338;2023-07-08T09:35:19;101045.50;;;12.45;87.75
70009;BME280;59542;37.950;-122.338;2023-07-08T09:37:48;101049.44;;;12.42;88.06
70009;BME280;59542;37.950;-122.338;2023-07-08T09:42:44;101047.75;;;12.48;87.60
70009;BME280;59542;37.950;-122.338;2023-07-08T09:45:16;101051.47;;;12.47;88.28
70009;BME280;59542;37.950;-122.338;2023-07-08T09:47:44;101049.00;;;12.45;87.90
70009;BME280;59542;37.950;-122.338;2023-07-08T09:50:23;101051.47;;;12.47;87.52
70009;BME280;59542;37.950;-122.338;2023-07-08T09:52:52;101048.78;;;12.47;87.81
70009;BME280;59542;37.950;-122.338;2023-07-08T09:55:20;101045.91;;;12.41;88.18
70009;BME280;59542;37.950;-122.338;2023-07-08T09:57:48;101036.63;;;12.37;88.07
70009;BME280;59542;37.950;-122.338;2023-07-08T10:00:19;101035.97;;;12.49;87.06
70009;BME280;59542;37.950;-122.338;2023-07-08T10:02:51;101033.53;;;12.40;87.73
70009;BME280;59542;37.950;-122.338;2023-07-08T10:05:41;101037.56;;;12.18;88.79
70009;BME280;59542;37.950;-122.338;2023-07-08T10:08:18;101042.00;;;12.37;88.10
70009;BME280;59542;37.950;-122.338;2023-07-08T10:11:10;101035.06;;;12.23;88.40
70009;BME280;59542;37.950;-122.338;2023-07-08T10:13:40;101030.72;;;12.22;89.02
70009;BME280;59542;37.950;-122.338;2023-07-08T10:16:23;101032.13;;;12.31;88.52
70009;BME280;59542;37.950;-122.338;2023-07-08T10:18:50;101034.41;;;12.34;87.34
70009;BME280;59542;37.950;-122.338;2023-07-08T10:27:27;101036.63;;;12.37;87.34
70009;BME280;59542;37.950;-122.338;2023-07-08T10:35:37;101041.66;;;12.21;87.44
70009;BME280;59542;37.950;-122.338;2023-07-08T10:43:59;101048.50;;;12.17;87.60
70009;BME280;59542;37.950;-122.338;2023-07-08T10:52:37;101050.97;;;12.18;88.14
70009;BME280;59542;37.950;-122.338;2023-07-08T11:00:30;101051.81;;;12.12;88.59
70009;BME280;59542;37.950;-122.338;2023-07-08T11:05:43;101059.44;;;12.08;88.84
70009;BME280;59542;37.950;-122.338;2023-07-08T11:13:58;101070.56;;;12.19;89.63
70009;BME280;59542;37.950;-122.338;2023-07-08T11:16:43;101079.88;;;12.16;89.87
70009;BME280;59542;37.950;-122.338;2023-07-08T11:19:20;101080.47;;;12.25;89.15
70009;BME280;59542;37.950;-122.338;2023-07-08T11:21:50;101075.91;;;12.25;88.87
70009;BME280;59542;37.950;-122.338;2023-07-08T11:24:29;101071.34;;;12.32;88.06
70009;BME280;59542;37.950;-122.338;2023-07-08T11:27:05;101074.22;;;12.37;87.77
70009;BME280;59542;37.950;-122.338;2023-07-08T11:29:44;101070.28;;;12.47;87.32
70009;BME280;59542;37.950;-122.338;2023-07-08T11:32:16;101074.41;;;12.42;86.87
70009;BME280;59542;37.950;-122.338;2023-07-08T11:34:44;101076.44;;;12.54;86.33
70009;BME280;59542;37.950;-122.338;2023-07-08T11:37:13;101085.41;;;12.21;87.18
70009;BME280;59542;37.950;-122.338;2023-07-08T11:39:45;101089.56;;;12.24;86.92
70009;BME280;59542;37.950;-122.338;2023-07-08T11:42:17;101088.72;;;12.23;86.73
70009;BME280;59542;37.950;-122.338;2023-07-08T11:44:56;101092.41;;;12.35;85.15
70009;BME280;59542;37.950;-122.338;2023-07-08T11:47:35;101094.91;;;12.30;84.47
70009;BME280;59542;37.950;-122.338;2023-07-08T11:50:05;101092.00;;;12.38;84.09
70009;BME280;59542;37.950;-122.338;2023-07-08T11:52:37;101097.78;;;12.35;83.40
70009;BME280;59542;37.950;-122.338;2023-07-08T11:55:22;101103.59;;;12.19;83.90
70009;BME280;59542;37.950;-122.338;2023-07-08T11:57:54;101110.41;;;12.28;83.84
70009;BME280;59542;37.950;-122.338;2023-07-08T12:00:25;101111.81;;;12.31;84.11
70009;BME280;59542;37.950;-122.338;2023-07-08T12:02:57;101111.16;;;12.49;83.67
70009;BME280;59542;37.950;-122.338;2023-07-08T12:05:36;101117.59;;;12.41;83.98
70009;BME280;59542;37.950;-122.338;2023-07-08T12:08:15;101119.00;;;12.43;83.30
70009;BME280;59542;37.950;-122.338;2023-07-08T12:10:51;101117.16;;;12.37;83.39
70009;BME280;59542;37.950;-122.338;2023-07-08T12:13:22;101122.53;;;12.44;83.50
70009;BME280;59542;37.950;-122.338;2023-07-08T12:15:49;101120.50;;;12.26;83.98
70009;BME280;59542;37.950;-122.338;2023-07-08T12:18:21;101122.59;;;12.24;84.06
70009;BME280;59542;37.950;-122.338;2023-07-08T12:20:54;101128.19;;;12.16;83.75
70009;BME280;59542;37.950;-122.338;2023-07-08T12:23:25;101121.78;;;12.10;84.23
70009;BME280;59542;37.950;-122.338;2023-07-08T12:25:53;101117.84;;;12.13;83.99
70009;BME280;59542;37.950;-122.338;2023-07-08T12:28:21;101120.13;;;12.16;84.04
70009;BME280;59542;37.950;-122.338;2023-07-08T12:30:49;101117.22;;;12.18;83.95
70009;BME280;59542;37.950;-122.338;2023-07-08T12:33:34;101118.91;;;12.12;84.08
70009;BME280;59542;37.950;-122.338;2023-07-08T12:36:03;101121.38;;;12.13;84.00
70009;BME280;59542;37.950;-122.338;2023-07-08T12:38:49;101116.59;;;12.22;83.70
70009;BME280;59542;37.950;-122.338;2023-07-08T12:41:24;101122.63;;;12.11;83.58
70009;BME280;59542;37.950;-122.338;2023-07-08T12:43:51;101117.44;;;12.16;83.16
70009;BME280;59542;37.950;-122.338;2023-07-08T12:46:20;101128.81;;;12.05;82.87
70009;BME280;59542;37.950;-122.338;2023-07-08T12:48:47;101125.53;;;11.89;83.62
70009;BME280;59542;37.950;-122.338;2023-07-08T12:51:25;101128.41;;;11.95;83.17
70009;BME280;59542;37.950;-122.338;2023-07-08T12:53:53;101128.81;;;11.98;82.60
70009;BME280;59542;37.950;-122.338;2023-07-08T12:56:21;101131.47;;;12.18;81.71
70009;BME280;59542;37.950;-122.338;2023-07-08T12:58:55;101137.88;;;12.04;82.02
70009;BME280;59542;37.950;-122.338;2023-07-08T13:01:25;101136.25;;;11.96;82.43
70009;BME280;59542;37.950;-122.338;2023-07-08T13:03:56;101136.44;;;12.08;82.06
70009;BME280;59542;37.950;-122.338;2023-07-08T13:06:27;101131.81;;;12.41;81.89
70009;BME280;59542;37.950;-122.338;2023-07-08T13:09:00;101135.84;;;12.06;82.69
70009;BME280;59542;37.950;-122.338;2023-07-08T13:11:28;101136.03;;;11.91;83.38
70009;BME280;59542;37.950;-122.338;2023-07-08T13:13:59;101136.84;;;11.98;83.59
70009;BME280;59542;37.950;-122.338;2023-07-08T13:16:31;101137.47;;;12.07;84.10
70009;BME280;59542;37.950;-122.338;2023-07-08T13:18:59;101133.78;;;12.01;84.47
70009;BME280;59542;37.950;-122.338;2023-07-08T13:21:26;101139.34;;;12.00;84.99
70009;BME280;59542;37.950;-122.338;2023-07-08T13:23:56;101140.38;;;12.12;84.47
70009;BME280;59542;37.950;-122.338;2023-07-08T13:26:26;101140.97;;;12.07;84.62
70009;BME280;59542;37.950;-122.338;2023-07-08T13:29:16;101145.09;;;12.03;85.19